createdAt,value
2019-02-21T00:00:08.936Z,6.50
2019-02-21T00:02:41.352Z,6.60
2019-02-21T00:05:12.044Z,5.97
2019-02-21T00:07:42.514Z,6.67
2019-02-21T00:10:13.032Z,7.17
2019-02-21T00:12:43.776Z,6.07
2019-02-21T00:15:14.705Z,6.20
2019-02-21T00:17:45.564Z,6.07
2019-02-21T00:20:16.375Z,5.77
2019-02-21T00:22:46.962Z,6.57
2019-02-21T00:25:17.640Z,5.77
2019-02-21T00:27:48.193Z,6.53
2019-02-21T00:30:18.815Z,6.80
2019-02-21T00:32:49.196Z,6.17
2019-02-21T00:35:20.137Z,6.27
2019-02-21T00:37:50.918Z,7.03
2019-02-21T00:40:21.983Z,5.90
2019-02-21T00:42:52.877Z,6.80
2019-02-21T00:45:23.945Z,6.20
2019-02-21T00:47:54.737Z,6.33
2019-02-21T00:50:25.624Z,6.10
2019-02-21T00:52:56.423Z,7.33
2019-02-21T00:55:27.997Z,5.80
2019-02-21T00:58:00.045Z,6.87
2019-02-21T01:00:30.645Z,6.10
2019-02-21T01:03:01.529Z,7.20
2019-02-21T01:05:32.283Z,6.57
2019-02-21T01:08:03.161Z,7.00
2019-02-21T01:10:33.896Z,6.87
2019-02-21T01:13:04.626Z,6.83
2019-02-21T01:15:35.414Z,7.13
2019-02-21T01:18:05.848Z,6.53
2019-02-21T01:20:36.386Z,6.80
2019-02-21T01:23:06.980Z,7.07
2019-02-21T01:25:37.414Z,6.90
2019-02-21T01:28:08.042Z,9.00
2019-02-21T01:30:38.734Z,7.77
2019-02-21T01:33:09.367Z,7.10
2019-02-21T01:35:40.034Z,7.60
2019-02-21T01:38:10.508Z,8.50
2019-02-21T01:40:41.084Z,8.77
2019-02-21T01:43:11.577Z,8.77
2019-02-21T01:45:42.234Z,8.83
2019-02-21T01:48:12.882Z,9.50
2019-02-21T01:50:43.514Z,8.60
2019-02-21T01:53:14.085Z,7.67
2019-02-21T01:55:45.228Z,8.00
2019-02-21T01:58:16.219Z,9.10
2019-02-21T02:00:46.862Z,9.27
2019-02-21T02:03:17.703Z,9.03
2019-02-21T02:05:48.111Z,9.83
2019-02-21T02:08:18.689Z,9.17
2019-02-21T02:10:49.284Z,9.80
2019-02-21T02:13:24.652Z,11.07
2019-02-21T02:15:52.049Z,11.10
2019-02-21T02:18:22.602Z,11.43
2019-02-21T02:20:53.287Z,11.97
2019-02-21T02:23:23.709Z,12.20
2019-02-21T02:25:54.291Z,12.60
2019-02-21T02:28:24.938Z,11.80
2019-02-21T02:30:55.424Z,12.90
2019-02-21T02:33:26.034Z,13.57
2019-02-21T02:35:56.619Z,14.90
2019-02-21T02:38:27.241Z,13.70
2019-02-21T02:40:57.879Z,13.93
2019-02-21T02:43:28.919Z,14.70
2019-02-21T02:45:59.552Z,14.07
2019-02-21T02:48:30.183Z,14.17
2019-02-21T02:51:00.711Z,14.23
2019-02-21T02:53:31.307Z,14.23
2019-02-21T02:56:01.969Z,13.57
2019-02-21T02:58:32.493Z,13.97
2019-02-21T03:01:03.083Z,14.17
2019-02-21T03:03:33.553Z,13.60
2019-02-21T03:06:04.274Z,12.80
2019-02-21T03:08:34.769Z,13.80
2019-02-21T03:11:05.403Z,13.27
2019-02-21T03:13:35.837Z,14.30
2019-02-21T03:16:06.416Z,13.23
2019-02-21T03:18:37.144Z,14.03
2019-02-21T03:21:07.850Z,15.30
2019-02-21T03:23:38.412Z,14.33
2019-02-21T03:26:08.990Z,13.93
2019-02-21T03:28:39.573Z,14.90
2019-02-21T03:31:10.103Z,13.47
2019-02-21T03:33:40.736Z,14.50
2019-02-21T03:36:11.374Z,15.23
2019-02-21T03:38:41.778Z,15.97
2019-02-21T03:41:12.364Z,14.67
2019-02-21T03:43:42.951Z,15.00
2019-02-21T03:46:13.788Z,14.60
2019-02-21T03:48:44.242Z,15.10
2019-02-21T03:51:14.843Z,14.43
2019-02-21T03:53:45.677Z,15.73
2019-02-21T03:56:16.301Z,16.43
2019-02-21T03:58:46.815Z,15.73
2019-02-21T04:01:17.402Z,15.77
2019-02-21T04:03:47.918Z,16.20
2019-02-21T04:06:19.565Z,16.43
2019-02-21T04:08:50.186Z,16.47
2019-02-21T04:11:20.678Z,16.27
2019-02-21T04:13:51.073Z,17.47
2019-02-21T04:16:22.075Z,17.77
2019-02-21T04:18:52.870Z,18.27
2019-02-21T04:21:23.614Z,19.50
2019-02-21T04:23:54.132Z,22.10
2019-02-21T04:26:25.645Z,20.90
2019-02-21T04:28:56.261Z,20.10
2019-02-21T04:31:26.893Z,21.23
2019-02-21T04:34:00.490Z,21.27
2019-02-21T04:36:30.933Z,22.53
2019-02-21T04:39:01.553Z,22.27
2019-02-21T04:41:33.723Z,23.90
2019-02-21T04:44:04.311Z,23.97
2019-02-21T04:46:34.818Z,23.00
2019-02-21T04:49:05.385Z,24.13
2019-02-21T04:51:35.934Z,24.73
2019-02-21T04:54:06.319Z,22.83
2019-02-21T04:56:36.995Z,25.70
2019-02-21T04:59:07.687Z,26.33
2019-02-21T05:01:40.245Z,25.83
2019-02-21T05:04:10.635Z,27.03
2019-02-21T05:06:41.247Z,25.70
2019-02-21T05:09:11.761Z,26.93
2019-02-21T05:11:42.205Z,27.77
2019-02-21T05:14:12.845Z,28.40
2019-02-21T05:16:44.683Z,28.43
2019-02-21T05:19:15.529Z,29.27
2019-02-21T05:21:46.042Z,31.13
2019-02-21T05:24:16.513Z,28.20
2019-02-21T05:26:51.053Z,30.57
2019-02-21T05:29:22.484Z,28.80
2019-02-21T05:32:06.874Z,32.33
2019-02-21T05:34:56.471Z,30.93
2019-02-21T05:37:42.694Z,33.00
2019-02-21T05:40:32.470Z,30.93
2019-02-21T05:43:22.098Z,32.63
2019-02-21T05:46:01.506Z,31.63
2019-02-21T05:48:48.290Z,33.23
2019-02-21T05:51:27.287Z,33.43
2019-02-21T05:54:17.172Z,34.07
2019-02-21T05:56:56.445Z,32.53
2019-02-21T05:59:36.803Z,35.07
2019-02-21T06:02:26.363Z,34.17
2019-02-21T06:05:03.175Z,34.60
2019-02-21T06:07:52.939Z,35.30
2019-02-21T06:10:30.831Z,34.93
2019-02-21T06:13:20.419Z,35.37
2019-02-21T06:16:02.670Z,35.40
2019-02-21T06:18:52.223Z,35.40
2019-02-21T06:21:41.630Z,34.13
2019-02-21T06:24:31.143Z,35.83
2019-02-21T06:27:21.878Z,33.03
2019-02-21T06:29:57.275Z,34.87
2019-02-21T06:32:27.788Z,34.87
2019-02-21T06:34:58.299Z,35.73
2019-02-21T06:37:28.844Z,35.83
2019-02-21T06:39:59.253Z,33.67
2019-02-21T06:42:29.749Z,34.87
2019-02-21T06:45:00.522Z,38.07
2019-02-21T06:47:31.179Z,37.27
2019-02-21T06:50:02.028Z,36.30
2019-02-21T06:52:32.660Z,35.60
2019-02-21T06:55:03.287Z,35.97
2019-02-21T06:57:33.955Z,41.57
2019-02-21T07:00:06.008Z,39.17
2019-02-21T07:02:36.523Z,37.60
2019-02-21T07:05:07.175Z,38.63
2019-02-21T07:07:37.863Z,36.93
2019-02-21T07:10:08.626Z,37.97
2019-02-21T07:12:39.253Z,39.23
2019-02-21T07:15:10.672Z,37.20
2019-02-21T07:17:48.883Z,38.20
2019-02-21T07:20:13.610Z,35.60
2019-02-21T07:22:44.242Z,38.67
2019-02-21T07:25:25.773Z,37.40
2019-02-21T07:27:58.271Z,39.03
2019-02-21T07:30:28.635Z,38.77
2019-02-21T07:32:59.175Z,38.27
2019-02-21T07:35:30.655Z,38.00
2019-02-21T07:38:01.192Z,41.63
2019-02-21T07:40:31.594Z,40.40
2019-02-21T07:43:02.146Z,39.10
2019-02-21T07:45:32.562Z,38.27
2019-02-21T07:48:03.263Z,38.03
2019-02-21T07:50:33.797Z,40.73
2019-02-21T07:53:04.513Z,41.13
2019-02-21T07:55:35.050Z,40.67
2019-02-21T07:58:05.642Z,42.07
2019-02-21T08:00:36.258Z,43.67
2019-02-21T08:03:09.096Z,41.50
2019-02-21T08:05:38.955Z,37.87
2019-02-21T08:08:09.518Z,38.20
2019-02-21T08:10:40.229Z,41.30
2019-02-21T08:13:10.866Z,40.63
2019-02-21T08:15:41.585Z,42.17
2019-02-21T08:18:12.112Z,38.77
2019-02-21T08:20:42.675Z,37.67
2019-02-21T08:23:13.114Z,37.53
2019-02-21T08:25:44.128Z,36.20
2019-02-21T08:28:15.247Z,37.40
2019-02-21T08:30:45.930Z,36.17
2019-02-21T08:33:35.514Z,37.30
2019-02-21T08:36:06.140Z,37.27
2019-02-21T08:38:36.654Z,35.93
2019-02-21T08:41:07.107Z,38.53
2019-02-21T08:43:38.848Z,36.40
2019-02-21T08:46:09.870Z,36.73
2019-02-21T08:48:40.613Z,37.40
2019-02-21T08:51:11.262Z,38.37
2019-02-21T08:53:41.786Z,34.83
2019-02-21T08:56:12.216Z,37.50
2019-02-21T08:58:42.665Z,37.00
2019-02-21T09:01:13.257Z,37.73
2019-02-21T09:03:43.856Z,39.67
2019-02-21T09:06:14.358Z,36.23
2019-02-21T09:08:44.956Z,33.83
2019-02-21T09:11:15.445Z,36.33
2019-02-21T09:13:45.991Z,37.60
2019-02-21T09:16:17.776Z,35.63
2019-02-21T09:18:48.734Z,37.43
2019-02-21T09:21:19.299Z,35.60
2019-02-21T09:23:49.893Z,35.63
2019-02-21T09:26:21.679Z,33.40
2019-02-21T09:28:52.473Z,34.10
2019-02-21T09:31:23.193Z,34.63
2019-02-21T09:33:53.850Z,33.90
2019-02-21T09:36:24.289Z,34.57
2019-02-21T09:38:54.871Z,35.67
2019-02-21T09:41:25.322Z,35.43
2019-02-21T09:43:55.839Z,36.40
2019-02-21T09:46:26.274Z,39.23
2019-02-21T09:48:56.757Z,41.77
2019-02-21T09:51:28.201Z,41.33
2019-02-21T09:53:58.662Z,42.00
2019-02-21T09:56:30.738Z,39.63
2019-02-21T09:59:01.581Z,45.40
2019-02-21T10:01:33.071Z,44.10
2019-02-21T10:04:03.632Z,44.80
2019-02-21T10:06:34.174Z,40.93
2019-02-21T10:09:06.192Z,40.90
2019-02-21T10:11:38.103Z,40.67
2019-02-21T10:14:09.518Z,39.03
2019-02-21T10:16:40.027Z,43.27
2019-02-21T10:19:10.560Z,41.03
2019-02-21T10:21:41.018Z,42.03
2019-02-21T10:24:11.797Z,43.50
2019-02-21T10:26:42.295Z,44.50
2019-02-21T10:29:12.754Z,41.07
2019-02-21T10:31:43.201Z,40.47
2019-02-21T10:34:13.603Z,40.07
2019-02-21T10:36:44.029Z,41.67
2019-02-21T10:39:14.555Z,40.67
2019-02-21T10:41:45.071Z,39.33
2019-02-21T10:44:15.538Z,41.23
2019-02-21T10:46:45.940Z,40.00
2019-02-21T10:49:16.489Z,41.13
2019-02-21T10:51:46.964Z,41.43
2019-02-21T10:54:17.640Z,41.23
2019-02-21T10:56:48.157Z,42.30
2019-02-21T10:59:18.675Z,43.67
2019-02-21T11:01:49.130Z,42.63
2019-02-21T11:04:19.614Z,41.77
2019-02-21T11:06:50.017Z,49.60
2019-02-21T11:09:22.346Z,42.80
2019-02-21T11:11:52.719Z,49.57
2019-02-21T11:14:23.483Z,46.70
2019-02-21T11:16:54.086Z,45.10
2019-02-21T11:19:24.594Z,50.57
2019-02-21T11:21:54.985Z,48.87
2019-02-21T11:24:25.544Z,48.20
2019-02-21T11:26:55.972Z,48.23
2019-02-21T11:29:26.594Z,49.33
2019-02-21T11:31:57.212Z,52.47
2019-02-21T11:34:27.611Z,50.93
2019-02-21T11:36:58.186Z,47.63
2019-02-21T11:39:28.653Z,50.40
2019-02-21T11:41:59.141Z,48.73
2019-02-21T11:44:29.693Z,50.20
2019-02-21T11:47:00.296Z,48.37
2019-02-21T11:49:31.058Z,51.43
2019-02-21T11:52:09.892Z,50.47
2019-02-21T11:54:33.902Z,47.73
2019-02-21T11:57:04.480Z,47.17
2019-02-21T11:59:35.156Z,45.93
2019-02-21T12:02:05.877Z,43.97
2019-02-21T12:04:36.380Z,45.90
2019-02-21T12:07:06.954Z,46.60
2019-02-21T12:09:37.502Z,47.00
2019-02-21T12:12:10.494Z,43.67
2019-02-21T12:14:41.277Z,46.17
2019-02-21T12:17:11.682Z,46.80
2019-02-21T12:19:42.486Z,45.80
2019-02-21T12:22:13.136Z,44.47
2019-02-21T12:24:43.615Z,41.90
2019-02-21T12:27:14.045Z,47.97
2019-02-21T12:29:44.436Z,44.40
2019-02-21T12:32:14.939Z,46.37
2019-02-21T12:34:45.530Z,45.40
2019-02-21T12:37:16.058Z,42.17
2019-02-21T12:39:46.604Z,43.40
2019-02-21T12:42:18.234Z,42.00
2019-02-21T12:44:48.637Z,42.43
2019-02-21T12:47:19.264Z,44.30
2019-02-21T12:49:49.814Z,46.33
2019-02-21T12:52:20.278Z,43.77
2019-02-21T12:54:51.860Z,45.60
2019-02-21T12:57:25.629Z,39.93
2019-02-21T12:59:56.041Z,39.93
2019-02-21T13:02:26.697Z,40.63
2019-02-21T13:04:57.255Z,41.23
2019-02-21T13:07:27.887Z,42.10
2019-02-21T13:09:58.406Z,43.03
2019-02-21T13:12:28.963Z,41.20
2019-02-21T13:14:59.603Z,41.20
2019-02-21T13:17:30.264Z,41.63
2019-02-21T13:20:00.869Z,42.63
2019-02-21T13:22:31.524Z,38.37
2019-02-21T13:25:02.050Z,34.80
2019-02-21T13:27:33.826Z,36.43
2019-02-21T13:30:05.616Z,34.17
2019-02-21T13:32:36.203Z,30.27
2019-02-21T13:35:07.357Z,29.50
2019-02-21T13:37:38.173Z,30.33
2019-02-21T13:40:10.558Z,29.53
2019-02-21T13:42:41.186Z,28.73
2019-02-21T13:45:13.022Z,27.93
2019-02-21T13:47:44.034Z,27.17
2019-02-21T13:50:15.700Z,24.97
2019-02-21T13:52:46.356Z,23.67
2019-02-21T13:55:16.925Z,24.23
2019-02-21T13:57:47.654Z,20.03
2019-02-21T14:00:19.574Z,23.13
2019-02-21T14:02:50.212Z,22.77
2019-02-21T14:05:20.881Z,21.13
2019-02-21T14:07:51.604Z,21.77
2019-02-21T14:10:22.243Z,21.93
2019-02-21T14:12:52.954Z,19.23
2019-02-21T14:15:24.776Z,22.10
2019-02-21T14:17:55.441Z,23.27
2019-02-21T14:20:26.874Z,23.30
2019-02-21T14:22:57.385Z,23.83
2019-02-21T14:25:29.857Z,26.13
2019-02-21T14:28:00.451Z,24.27
2019-02-21T14:30:31.063Z,25.47
2019-02-21T14:33:01.472Z,25.73
2019-02-21T14:35:32.173Z,25.80
2019-02-21T14:38:02.929Z,28.00
2019-02-21T14:40:33.558Z,27.23
2019-02-21T14:43:04.242Z,26.87
2019-02-21T14:45:34.857Z,27.23
2019-02-21T14:48:05.560Z,24.00
2019-02-21T14:50:36.252Z,27.07
2019-02-21T14:53:06.942Z,26.10
2019-02-21T14:55:38.501Z,26.03
2019-02-21T14:58:09.393Z,26.07
2019-02-21T15:00:40.784Z,26.50
2019-02-21T15:03:21.666Z,24.57
2019-02-21T15:05:43.881Z,26.07
2019-02-21T15:08:16.353Z,28.83
2019-02-21T15:10:47.049Z,30.03
2019-02-21T15:13:17.756Z,28.80
2019-02-21T15:15:48.674Z,30.03
2019-02-21T15:18:19.592Z,29.43
2019-02-21T15:20:51.528Z,28.53
2019-02-21T15:23:22.296Z,29.57
2019-02-21T15:25:53.050Z,30.97
2019-02-21T15:28:25.957Z,33.03
2019-02-21T15:30:56.720Z,32.27
2019-02-21T15:33:27.458Z,34.63
2019-02-21T15:35:58.087Z,30.87
2019-02-21T15:38:28.849Z,28.50
2019-02-21T15:40:59.516Z,29.17
2019-02-21T15:43:30.218Z,28.07
2019-02-21T15:46:00.859Z,27.50
2019-02-21T15:48:31.693Z,26.07
2019-02-21T15:51:05.488Z,26.60
2019-02-21T15:53:36.157Z,24.60
2019-02-21T15:56:06.854Z,26.47
2019-02-21T15:58:37.594Z,26.70
2019-02-21T16:01:08.335Z,26.73
2019-02-21T16:03:38.817Z,25.67
2019-02-21T16:06:09.566Z,28.03
2019-02-21T16:08:40.201Z,27.57
2019-02-21T16:11:10.929Z,29.97
2019-02-21T16:13:42.206Z,28.37
2019-02-21T16:16:13.144Z,27.53
2019-02-21T16:18:43.639Z,27.73
2019-02-21T16:21:14.411Z,29.77
2019-02-21T16:23:45.027Z,31.17
2019-02-21T16:26:15.649Z,36.97
2019-02-21T16:28:46.348Z,32.17
2019-02-21T16:31:17.033Z,30.90
2019-02-21T16:33:47.781Z,29.57
2019-02-21T16:36:18.495Z,28.50
2019-02-21T16:38:49.048Z,28.23
2019-02-21T16:41:19.925Z,29.63
2019-02-21T16:43:50.633Z,28.13
2019-02-21T16:46:21.263Z,26.90
2019-02-21T16:48:52.146Z,27.00
2019-02-21T16:51:22.905Z,27.80
2019-02-21T16:53:53.381Z,29.67
2019-02-21T16:56:26.574Z,33.67
2019-02-21T16:58:56.896Z,35.83
2019-02-21T17:01:29.893Z,37.57
2019-02-21T17:04:00.121Z,37.80
2019-02-21T17:06:30.905Z,34.13
2019-02-21T17:09:01.625Z,35.13
2019-02-21T17:11:33.892Z,34.47
2019-02-21T17:14:04.586Z,32.47
2019-02-21T17:16:35.279Z,31.67
2019-02-21T17:19:05.992Z,29.93
2019-02-21T17:21:36.831Z,29.63
2019-02-21T17:24:07.540Z,28.67
2019-02-21T17:26:39.065Z,29.43
2019-02-21T17:29:09.590Z,29.90
2019-02-21T17:31:40.279Z,31.33
2019-02-21T17:34:10.893Z,29.60
2019-02-21T17:36:41.491Z,33.97
2019-02-21T17:39:12.429Z,31.93
2019-02-21T17:41:43.255Z,31.13
2019-02-21T17:44:14.144Z,28.70
2019-02-21T17:46:44.864Z,28.47
2019-02-21T17:49:15.786Z,28.77
2019-02-21T17:51:46.533Z,31.33
2019-02-21T17:54:17.256Z,29.97
2019-02-21T17:56:47.838Z,32.90
2019-02-21T17:59:18.541Z,34.50
2019-02-21T18:01:50.277Z,32.00
2019-02-21T18:04:20.692Z,30.40
2019-02-21T18:06:51.372Z,31.07
2019-02-21T18:09:22.014Z,28.00
2019-02-21T18:11:52.613Z,28.70
2019-02-21T18:14:23.352Z,27.37
2019-02-21T18:16:54.066Z,28.57
2019-02-21T18:19:24.765Z,27.23
2019-02-21T18:21:55.563Z,27.17
2019-02-21T18:24:26.287Z,26.97
2019-02-21T18:26:58.853Z,26.17
2019-02-21T18:29:29.713Z,26.07
2019-02-21T18:32:02.033Z,24.90
2019-02-21T18:34:32.818Z,26.53
2019-02-21T18:37:03.475Z,24.23
2019-02-21T18:39:35.204Z,25.67
2019-02-21T18:42:06.145Z,23.87
2019-02-21T18:44:38.639Z,25.03
2019-02-21T18:47:10.775Z,23.10
2019-02-21T18:49:42.269Z,24.13
2019-02-21T18:52:12.984Z,21.83
2019-02-21T18:54:43.995Z,23.17
2019-02-21T18:57:14.776Z,22.13
2019-02-21T18:59:46.180Z,21.57
2019-02-21T19:02:19.733Z,21.20
2019-02-21T19:04:55.343Z,22.87
2019-02-21T19:07:26.261Z,21.87
2019-02-21T19:09:58.305Z,21.07
2019-02-21T19:12:30.831Z,20.27
2019-02-21T19:15:02.774Z,22.93
2019-02-21T19:17:33.925Z,21.50
2019-02-21T19:20:05.363Z,24.00
2019-02-21T19:22:36.072Z,24.27
2019-02-21T19:25:07.800Z,23.77
2019-02-21T19:27:38.518Z,21.40
2019-02-21T19:30:13.922Z,20.47
2019-02-21T19:32:44.772Z,22.77
2019-02-21T19:35:18.565Z,22.37
2019-02-21T19:37:50.340Z,20.57
2019-02-21T19:40:21.386Z,20.27
2019-02-21T19:42:52.113Z,21.67
2019-02-21T19:45:23.046Z,22.27
2019-02-21T19:47:55.913Z,21.40
2019-02-21T19:50:27.025Z,21.20
2019-02-21T19:53:00.760Z,20.47
2019-02-21T19:55:31.422Z,20.70
2019-02-21T19:58:02.129Z,22.17
2019-02-21T20:00:33.712Z,19.40
2019-02-21T20:03:06.610Z,17.90
2019-02-21T20:05:37.438Z,19.67
2019-02-21T20:08:09.172Z,18.27
2019-02-21T20:10:44.826Z,12.83
2019-02-21T20:13:15.502Z,17.50
2019-02-21T20:15:46.407Z,16.50
2019-02-21T20:18:18.777Z,19.70
2019-02-21T20:20:50.134Z,17.20
2019-02-21T20:23:21.323Z,17.13
2019-02-21T20:25:52.230Z,16.53
2019-02-21T20:28:23.034Z,16.77
2019-02-21T20:30:53.832Z,17.37
2019-02-21T20:33:24.714Z,16.07
2019-02-21T20:35:55.655Z,17.07
2019-02-21T20:38:32.072Z,14.60
2019-02-21T20:40:59.064Z,14.20
2019-02-21T20:43:30.008Z,14.47
2019-02-21T20:46:00.846Z,14.00
2019-02-21T20:48:31.669Z,14.10
2019-02-21T20:51:02.507Z,12.50
2019-02-21T20:53:33.351Z,12.17
2019-02-21T20:56:06.087Z,12.30
2019-02-21T20:58:36.275Z,12.83
2019-02-21T21:01:07.615Z,11.17
2019-02-21T21:03:38.285Z,10.93
2019-02-21T21:06:08.954Z,12.50
2019-02-21T21:08:43.442Z,11.60
2019-02-21T21:11:12.076Z,9.83
2019-02-21T21:13:44.133Z,9.77
2019-02-21T21:16:15.001Z,11.57
2019-02-21T21:18:45.900Z,10.53
2019-02-21T21:21:18.184Z,12.53
2019-02-21T21:23:48.893Z,10.43
2019-02-21T21:26:19.561Z,12.17
2019-02-21T21:28:50.280Z,10.00
2019-02-21T21:31:22.646Z,8.63
2019-02-21T21:33:53.153Z,11.93
2019-02-21T21:36:23.560Z,9.63
2019-02-21T21:38:55.834Z,10.40
2019-02-21T21:41:26.405Z,14.30
2019-02-21T21:43:57.023Z,12.07
2019-02-21T21:46:27.951Z,14.57
2019-02-21T21:48:58.494Z,12.57
2019-02-21T21:51:30.044Z,17.93
2019-02-21T21:54:00.679Z,12.37
2019-02-21T21:56:31.162Z,14.90
2019-02-21T21:59:01.692Z,14.40
2019-02-21T22:01:32.266Z,11.90
2019-02-21T22:04:02.803Z,8.40
2019-02-21T22:06:33.645Z,8.90
2019-02-21T22:09:05.211Z,7.10
2019-02-21T22:11:36.511Z,8.17
2019-02-21T22:14:07.397Z,6.13
2019-02-21T22:16:38.304Z,5.53
2019-02-21T22:19:09.305Z,7.63
2019-02-21T22:21:40.146Z,5.63
2019-02-21T22:24:11.207Z,5.33
2019-02-21T22:26:42.071Z,6.00
2019-02-21T22:29:12.963Z,8.00
2019-02-21T22:31:43.849Z,9.10
2019-02-21T22:34:14.751Z,7.33
2019-02-21T22:36:45.648Z,8.27
2019-02-21T22:39:18.568Z,6.70
2019-02-21T22:41:49.537Z,4.57
2019-02-21T22:44:20.680Z,6.70
2019-02-21T22:46:52.576Z,9.07
2019-02-21T22:49:23.366Z,7.73
2019-02-21T22:51:54.210Z,3.53
2019-02-21T22:54:25.371Z,7.37
2019-02-21T22:56:56.183Z,6.77
2019-02-21T22:59:27.031Z,7.20
2019-02-21T23:01:59.350Z,6.90
2019-02-21T23:04:52.457Z,5.43
2019-02-21T23:07:34.718Z,7.17
2019-02-21T23:10:05.710Z,5.97
2019-02-21T23:12:36.990Z,6.40
2019-02-21T23:15:08.785Z,5.77
2019-02-21T23:17:39.855Z,5.33
2019-02-21T23:20:10.782Z,5.40
2019-02-21T23:22:41.819Z,6.50
2019-02-21T23:25:12.766Z,5.90
2019-02-21T23:27:44.569Z,5.40
2019-02-21T23:30:15.664Z,4.67
2019-02-21T23:32:46.510Z,5.23
2019-02-21T23:35:20.317Z,4.13
2019-02-21T23:37:51.362Z,5.07
2019-02-21T23:40:23.002Z,4.47
2019-02-21T23:42:53.976Z,4.27
2019-02-21T23:45:24.995Z,4.57
2019-02-21T23:47:56.022Z,3.97
2019-02-21T23:50:26.897Z,5.67
2019-02-21T23:52:57.906Z,5.10
2019-02-21T23:55:28.940Z,6.23
2019-02-21T23:57:59.885Z,4.57
